createdAt,value
2022-10-01T00:01:12.676Z,5.23
2022-10-01T00:03:40.102Z,4.90
2022-10-01T00:06:19.404Z,5.10
2022-10-01T00:08:49.306Z,5.10
2022-10-01T00:11:19.908Z,5.57
2022-10-01T00:13:47.649Z,5.27
2022-10-01T00:16:23.484Z,5.33
2022-10-01T00:18:50.579Z,5.60
2022-10-01T00:21:20.275Z,5.03
2022-10-01T00:23:47.677Z,5.50
2022-10-01T00:26:18.358Z,5.37
2022-10-01T00:28:47.642Z,5.27
2022-10-01T00:31:15.966Z,5.70
2022-10-01T00:33:43.038Z,4.73
2022-10-01T00:36:10.945Z,5.43
2022-10-01T00:38:40.200Z,5.20
2022-10-01T00:41:08.312Z,5.27
2022-10-01T00:43:37.814Z,5.17
2022-10-01T00:46:18.327Z,5.20
2022-10-01T00:48:56.895Z,5.77
2022-10-01T00:51:25.676Z,5.37
2022-10-01T00:53:57.133Z,5.13
2022-10-01T00:56:24.054Z,5.27
2022-10-01T00:58:55.391Z,5.60
2022-10-01T01:01:24.260Z,5.43
2022-10-01T01:03:51.673Z,4.73
2022-10-01T01:06:18.492Z,4.73
2022-10-01T01:08:45.398Z,4.87
2022-10-01T01:11:34.861Z,5.53
2022-10-01T01:14:24.757Z,5.30
2022-10-01T01:17:08.422Z,5.53
2022-10-01T01:20:11.914Z,5.57
2022-10-01T01:22:48.401Z,4.63
2022-10-01T01:25:25.697Z,4.07
2022-10-01T01:28:19.572Z,5.10
2022-10-01T01:30:49.332Z,4.90
2022-10-01T01:33:19.891Z,4.67
2022-10-01T01:35:54.816Z,4.60
2022-10-01T01:38:28.149Z,5.43
2022-10-01T01:40:58.904Z,4.80
2022-10-01T01:43:31.313Z,4.73
2022-10-01T01:46:00.679Z,4.97
2022-10-01T01:48:30.730Z,5.63
2022-10-01T01:51:14.621Z,4.77
2022-10-01T01:53:41.666Z,5.83
2022-10-01T01:56:08.301Z,5.37
2022-10-01T01:58:36.263Z,5.70
2022-10-01T02:01:03.970Z,4.67
2022-10-01T02:03:33.183Z,5.30
2022-10-01T02:06:42.574Z,4.87
2022-10-01T02:09:21.336Z,5.30
2022-10-01T02:12:11.749Z,5.17
2022-10-01T02:14:47.435Z,4.63
2022-10-01T02:17:27.454Z,5.27
2022-10-01T02:20:00.098Z,5.20
2022-10-01T02:22:47.164Z,5.03
2022-10-01T02:25:17.380Z,4.30
2022-10-01T02:27:50.620Z,4.50
2022-10-01T02:30:18.081Z,4.43
2022-10-01T02:32:47.385Z,4.50
2022-10-01T02:35:17.074Z,4.77
2022-10-01T02:37:45.879Z,4.47
2022-10-01T02:40:17.233Z,4.53
2022-10-01T02:42:49.889Z,4.50
2022-10-01T02:45:21.485Z,4.33
2022-10-01T02:47:57.828Z,4.10
2022-10-01T02:50:31.286Z,4.27
2022-10-01T02:53:38.305Z,4.07
2022-10-01T02:56:06.414Z,4.23
2022-10-01T02:58:33.048Z,4.40
2022-10-01T03:00:59.666Z,4.43
2022-10-01T03:03:27.287Z,4.53
2022-10-01T03:05:53.944Z,4.03
2022-10-01T03:08:20.596Z,4.70
2022-10-01T03:10:47.373Z,3.90
2022-10-01T03:13:14.721Z,4.77
2022-10-01T03:15:41.732Z,4.43
2022-10-01T03:18:08.380Z,4.30
2022-10-01T03:20:35.014Z,4.87
2022-10-01T03:23:01.680Z,4.37
2022-10-01T03:25:28.301Z,4.67
2022-10-01T03:27:54.958Z,5.00
2022-10-01T03:30:22.139Z,4.97
2022-10-01T03:32:48.778Z,5.10
2022-10-01T03:35:15.508Z,5.70
2022-10-01T03:37:42.169Z,5.00
2022-10-01T03:40:09.021Z,5.30
2022-10-01T03:42:35.697Z,5.60
2022-10-01T03:45:02.357Z,5.60
2022-10-01T03:47:28.949Z,5.93
2022-10-01T03:49:55.588Z,5.93
2022-10-01T03:52:22.228Z,6.00
2022-10-01T03:54:48.871Z,5.93
2022-10-01T03:57:15.591Z,6.13
2022-10-01T03:59:42.613Z,5.67
2022-10-01T04:02:09.467Z,6.50
2022-10-01T04:04:36.409Z,6.40
2022-10-01T04:07:03.084Z,6.43
2022-10-01T04:09:29.763Z,7.17
2022-10-01T04:11:56.468Z,7.60
2022-10-01T04:14:23.115Z,7.10
2022-10-01T04:16:52.275Z,7.30
2022-10-01T04:19:20.068Z,6.93
2022-10-01T04:21:46.807Z,8.13
2022-10-01T04:24:13.424Z,8.33
2022-10-01T04:26:40.095Z,7.70
2022-10-01T04:29:06.730Z,8.07
2022-10-01T04:31:35.202Z,8.23
2022-10-01T04:34:02.601Z,7.57
2022-10-01T04:36:29.373Z,7.47
2022-10-01T04:39:01.682Z,7.83
2022-10-01T04:41:30.638Z,8.57
2022-10-01T04:43:59.678Z,8.37
2022-10-01T04:46:26.559Z,8.27
2022-10-01T04:48:53.256Z,7.60
2022-10-01T04:51:19.981Z,8.83
2022-10-01T04:53:46.655Z,8.37
2022-10-01T04:56:13.212Z,9.50
2022-10-01T04:58:40.166Z,9.73
2022-10-01T05:01:07.240Z,8.50
2022-10-01T05:03:34.385Z,7.40
2022-10-01T05:06:01.024Z,7.17
2022-10-01T05:08:27.646Z,7.97
2022-10-01T05:10:54.290Z,7.13
2022-10-01T05:13:20.915Z,7.70
2022-10-01T05:15:50.341Z,7.50
2022-10-01T05:18:17.090Z,6.23
2022-10-01T05:20:43.774Z,7.07
2022-10-01T05:23:10.390Z,6.43
2022-10-01T05:25:36.991Z,6.13
2022-10-01T05:28:05.482Z,6.57
2022-10-01T05:30:33.817Z,6.57
2022-10-01T05:33:02.335Z,6.33
2022-10-01T05:35:29.643Z,6.80
2022-10-01T05:37:59.005Z,6.37
2022-10-01T05:40:28.430Z,6.53
2022-10-01T05:42:56.839Z,5.73
2022-10-01T05:45:24.077Z,6.57
2022-10-01T05:48:05.095Z,6.40
2022-10-01T05:50:34.076Z,6.63
2022-10-01T05:53:02.007Z,6.93
2022-10-01T05:55:33.289Z,6.27
2022-10-01T05:58:02.995Z,6.63
2022-10-01T06:00:30.932Z,6.47
2022-10-01T06:03:00.507Z,6.37
2022-10-01T06:05:28.648Z,6.13
2022-10-01T06:07:56.521Z,6.50
2022-10-01T06:10:23.844Z,6.30
2022-10-01T06:12:51.069Z,6.90
2022-10-01T06:15:18.486Z,6.67
2022-10-01T06:17:45.304Z,6.83
2022-10-01T06:20:17.418Z,6.40
2022-10-01T06:22:44.814Z,6.10
2022-10-01T06:25:14.943Z,5.97
2022-10-01T06:27:41.710Z,5.70
2022-10-01T06:30:08.942Z,5.50
2022-10-01T06:32:35.648Z,6.13
2022-10-01T06:35:03.366Z,5.40
2022-10-01T06:37:30.089Z,6.20
2022-10-01T06:39:56.895Z,6.07
2022-10-01T06:42:23.574Z,6.10
2022-10-01T06:44:50.197Z,5.90
2022-10-01T06:47:16.846Z,6.03
2022-10-01T06:49:47.351Z,7.53
2022-10-01T06:52:33.282Z,6.83
2022-10-01T06:55:01.309Z,6.60
2022-10-01T06:57:28.993Z,6.40
2022-10-01T06:59:55.787Z,6.20
2022-10-01T07:02:27.918Z,6.00
2022-10-01T07:04:58.859Z,5.70
2022-10-01T07:07:45.754Z,5.73
2022-10-01T07:10:12.644Z,5.83
2022-10-01T07:12:39.667Z,5.37
2022-10-01T07:15:08.190Z,6.03
2022-10-01T07:17:42.360Z,5.37
2022-10-01T07:20:09.391Z,5.50
2022-10-01T07:22:36.685Z,5.90
2022-10-01T07:25:03.454Z,5.67
2022-10-01T07:27:30.134Z,5.53
2022-10-01T07:29:59.077Z,5.07
2022-10-01T07:32:26.360Z,5.60
2022-10-01T07:34:53.010Z,5.00
2022-10-01T07:37:19.743Z,4.80
2022-10-01T07:39:46.377Z,4.83
2022-10-01T07:42:12.910Z,4.70
2022-10-01T07:44:39.559Z,5.53
2022-10-01T07:47:06.219Z,5.03
2022-10-01T07:49:32.899Z,5.10
2022-10-01T07:51:59.582Z,4.97
2022-10-01T07:54:26.730Z,5.03
2022-10-01T07:56:55.767Z,4.77
2022-10-01T07:59:23.318Z,5.03
2022-10-01T08:01:51.627Z,4.60
2022-10-01T08:04:38.192Z,4.33
2022-10-01T08:07:05.327Z,5.13
2022-10-01T08:09:32.393Z,5.10
2022-10-01T08:11:59.163Z,4.60
2022-10-01T08:14:26.249Z,4.47
2022-10-01T08:16:55.724Z,4.20
2022-10-01T08:19:22.743Z,5.30
2022-10-01T08:21:49.392Z,4.23
2022-10-01T08:24:16.104Z,4.30
2022-10-01T08:26:42.735Z,3.70
2022-10-01T08:29:12.543Z,3.80
2022-10-01T08:31:42.663Z,3.50
2022-10-01T08:34:09.395Z,3.60
2022-10-01T08:36:37.707Z,3.40
2022-10-01T08:39:04.386Z,3.33
2022-10-01T08:41:58.781Z,3.17
2022-10-01T08:44:34.765Z,5.30
2022-10-01T08:47:10.168Z,2.83
2022-10-01T08:49:42.422Z,4.20
2022-10-01T08:52:33.090Z,3.97
2022-10-01T08:55:21.201Z,4.07
2022-10-01T08:58:01.879Z,3.87
2022-10-01T09:00:30.404Z,4.37
2022-10-01T09:03:00.931Z,11.87
2022-10-01T09:05:41.598Z,4.53
2022-10-01T09:08:24.152Z,3.60
2022-10-01T09:11:01.598Z,3.70
2022-10-01T09:13:39.426Z,3.37
2022-10-01T09:16:18.934Z,3.60
2022-10-01T09:19:15.468Z,3.67
2022-10-01T09:21:42.031Z,4.13
2022-10-01T09:24:15.680Z,4.00
2022-10-01T09:26:48.744Z,4.10
2022-10-01T09:29:25.796Z,4.30
2022-10-01T09:31:54.922Z,4.30
2022-10-01T09:34:37.229Z,3.60
2022-10-01T09:37:25.077Z,3.60
2022-10-01T09:40:12.691Z,3.37
2022-10-01T09:42:39.264Z,3.67
2022-10-01T09:45:06.875Z,3.63
2022-10-01T09:47:34.345Z,3.67
2022-10-01T09:50:05.305Z,3.37
2022-10-01T09:52:37.385Z,3.10
2022-10-01T09:55:16.045Z,3.03
2022-10-01T09:57:52.255Z,3.20
2022-10-01T10:00:21.912Z,3.13
2022-10-01T10:02:54.183Z,3.40
2022-10-01T10:05:22.833Z,3.43
2022-10-01T10:07:52.991Z,2.83
2022-10-01T10:10:30.652Z,2.80
2022-10-01T10:13:01.097Z,2.90
2022-10-01T10:15:31.299Z,2.90
2022-10-01T10:18:07.518Z,3.10
2022-10-01T10:20:40.372Z,2.47
2022-10-01T10:23:16.802Z,3.33
2022-10-01T10:25:43.832Z,3.77
2022-10-01T10:28:23.754Z,3.23
2022-10-01T10:30:54.649Z,4.00
2022-10-01T10:33:23.647Z,4.10
2022-10-01T10:36:03.027Z,4.57
2022-10-01T10:38:33.750Z,4.27
2022-10-01T10:41:01.658Z,3.53
2022-10-01T10:43:36.556Z,3.87
2022-10-01T10:46:03.556Z,3.57
2022-10-01T10:48:45.829Z,4.43
2022-10-01T10:51:12.544Z,3.60
2022-10-01T10:53:47.269Z,3.47
2022-10-01T10:56:22.722Z,3.30
2022-10-01T10:58:53.804Z,3.10
2022-10-01T11:01:29.946Z,3.13
2022-10-01T11:04:00.611Z,3.23
2022-10-01T11:06:27.693Z,3.10
2022-10-01T11:09:07.095Z,3.27
2022-10-01T11:11:47.790Z,3.43
2022-10-01T11:14:35.254Z,3.13
2022-10-01T11:17:36.854Z,3.13
2022-10-01T11:20:22.173Z,2.97
2022-10-01T11:22:57.601Z,3.40
2022-10-01T11:25:47.533Z,3.67
2022-10-01T11:28:32.673Z,3.20
2022-10-01T11:31:11.221Z,4.00
2022-10-01T11:33:57.820Z,3.33
2022-10-01T11:36:36.984Z,3.97
2022-10-01T11:39:25.128Z,3.07
2022-10-01T11:42:07.679Z,2.73
2022-10-01T11:44:36.700Z,3.17
2022-10-01T11:47:15.435Z,2.37
2022-10-01T11:50:05.996Z,2.17
2022-10-01T11:52:33.906Z,2.63
2022-10-01T11:55:28.142Z,2.60
2022-10-01T11:58:45.712Z,2.43
2022-10-01T12:01:19.574Z,1.77
2022-10-01T12:03:53.216Z,2.60
2022-10-01T12:06:39.319Z,1.97
2022-10-01T12:09:16.949Z,2.70
2022-10-01T12:12:07.271Z,3.00
2022-10-01T12:15:06.254Z,2.27
2022-10-01T12:17:45.354Z,2.20
2022-10-01T12:20:31.539Z,2.33
2022-10-01T12:23:00.773Z,2.37
2022-10-01T12:25:41.982Z,2.40
2022-10-01T12:28:25.926Z,2.40
2022-10-01T12:31:03.161Z,2.13
2022-10-01T12:33:59.047Z,1.77
2022-10-01T12:36:46.974Z,1.70
2022-10-01T12:39:23.629Z,1.40
2022-10-01T12:42:32.013Z,1.20
2022-10-01T12:45:02.308Z,1.07
2022-10-01T12:47:55.514Z,1.20
2022-10-01T12:50:45.939Z,1.00
2022-10-01T12:53:32.752Z,1.20
2022-10-01T12:56:08.443Z,1.03
2022-10-01T12:58:38.207Z,1.27
2022-10-01T13:01:34.607Z,1.47
2022-10-01T13:04:24.948Z,1.10
2022-10-01T13:07:13.209Z,1.40
2022-10-01T13:10:07.206Z,1.53
2022-10-01T13:12:58.716Z,1.13
2022-10-01T13:15:58.567Z,1.50
2022-10-01T13:18:59.067Z,1.20
2022-10-01T13:22:00.059Z,1.40
2022-10-01T13:24:40.743Z,1.20
2022-10-01T13:27:18.283Z,1.03
2022-10-01T13:30:00.959Z,1.37
2022-10-01T13:32:27.513Z,0.97
2022-10-01T13:34:54.843Z,1.10
2022-10-01T13:37:43.752Z,1.10
2022-10-01T13:40:27.559Z,1.50
2022-10-01T13:43:01.501Z,1.33
2022-10-01T13:45:41.439Z,0.90
2022-10-01T13:48:11.116Z,0.80
2022-10-01T13:50:55.225Z,0.60
2022-10-01T13:53:25.632Z,0.80
2022-10-01T13:55:53.948Z,0.70
2022-10-01T13:58:29.548Z,0.50
2022-10-01T14:00:58.694Z,0.67
2022-10-01T14:03:34.572Z,0.77
2022-10-01T14:06:03.953Z,0.60
2022-10-01T14:08:52.237Z,0.50
2022-10-01T14:11:44.249Z,0.90
2022-10-01T14:14:39.731Z,0.60
2022-10-01T14:17:08.582Z,0.60
2022-10-01T14:19:35.447Z,0.80
2022-10-01T14:22:32.637Z,0.70
2022-10-01T14:25:37.194Z,0.70
2022-10-01T14:28:18.687Z,0.70
2022-10-01T14:31:16.036Z,0.43
2022-10-01T14:33:54.661Z,0.70
2022-10-01T14:36:32.385Z,0.60
2022-10-01T14:39:21.049Z,0.70
2022-10-01T14:41:49.986Z,0.57
2022-10-01T14:44:22.490Z,0.30
2022-10-01T14:46:50.886Z,0.63
2022-10-01T14:49:27.663Z,0.57
2022-10-01T14:52:04.437Z,0.53
2022-10-01T14:54:43.761Z,0.40
2022-10-01T14:57:12.995Z,0.40
2022-10-01T14:59:40.674Z,0.30
2022-10-01T15:02:19.821Z,0.30
2022-10-01T15:04:52.049Z,0.30
2022-10-01T15:07:19.373Z,0.40
2022-10-01T15:09:47.140Z,1.10
2022-10-01T15:12:16.436Z,0.53
2022-10-01T15:14:43.845Z,0.50
2022-10-01T15:17:19.974Z,0.40
2022-10-01T15:19:52.098Z,0.40
2022-10-01T15:22:23.080Z,0.30
2022-10-01T15:24:52.520Z,0.33
2022-10-01T15:27:20.923Z,0.40
2022-10-01T15:29:55.983Z,0.40
2022-10-01T15:32:25.128Z,0.60
2022-10-01T15:34:57.902Z,0.83
2022-10-01T15:37:31.881Z,0.30
2022-10-01T15:40:00.493Z,0.40
2022-10-01T15:42:35.341Z,0.80
2022-10-01T15:45:08.013Z,0.40
2022-10-01T15:47:39.528Z,0.60
2022-10-01T15:50:18.142Z,0.50
2022-10-01T15:52:51.519Z,1.10
2022-10-01T15:55:23.044Z,0.50
2022-10-01T15:57:58.110Z,0.70
2022-10-01T16:00:31.311Z,0.60
2022-10-01T16:02:58.776Z,0.70
2022-10-01T16:05:49.129Z,0.67
2022-10-01T16:08:21.396Z,0.67
2022-10-01T16:11:07.782Z,0.77
2022-10-01T16:13:39.188Z,0.80
2022-10-01T16:16:28.582Z,1.03
2022-10-01T16:18:59.395Z,1.00
2022-10-01T16:21:26.729Z,1.00
2022-10-01T16:23:55.102Z,1.17
2022-10-01T16:26:28.127Z,1.10
2022-10-01T16:28:55.763Z,1.10
2022-10-01T16:31:23.017Z,1.10
2022-10-01T16:33:49.667Z,1.10
2022-10-01T16:36:24.032Z,1.50
2022-10-01T16:38:51.434Z,1.00
2022-10-01T16:41:26.740Z,1.00
2022-10-01T16:43:55.932Z,1.00
2022-10-01T16:46:22.637Z,1.43
2022-10-01T16:48:51.694Z,0.87
2022-10-01T16:51:19.382Z,1.17
2022-10-01T16:53:47.002Z,1.37
2022-10-01T16:56:14.171Z,1.50
2022-10-01T16:58:43.108Z,1.13
2022-10-01T17:01:14.347Z,1.30
2022-10-01T17:03:42.125Z,1.90
2022-10-01T17:06:09.943Z,1.30
2022-10-01T17:08:37.696Z,1.60
2022-10-01T17:11:04.685Z,1.33
2022-10-01T17:13:34.036Z,1.20
2022-10-01T17:16:01.411Z,2.07
2022-10-01T17:18:28.538Z,1.33
2022-10-01T17:20:56.297Z,1.80
2022-10-01T17:23:23.463Z,1.40
2022-10-01T17:25:50.314Z,1.60
2022-10-01T17:28:19.903Z,1.67
2022-10-01T17:30:48.141Z,1.95
2022-10-01T17:33:16.631Z,1.70
2022-10-01T17:35:45.524Z,1.70
2022-10-01T17:38:13.543Z,1.30
2022-10-01T17:40:42.823Z,2.13
2022-10-01T17:43:13.844Z,1.43
2022-10-01T17:45:40.722Z,1.73
2022-10-01T17:48:07.960Z,2.10
2022-10-01T17:50:35.341Z,2.37
2022-10-01T17:53:02.100Z,1.90
2022-10-01T17:55:29.024Z,1.40
2022-10-01T17:57:56.129Z,1.60
2022-10-01T18:00:22.865Z,1.87
2022-10-01T18:02:49.692Z,1.53
2022-10-01T18:05:17.161Z,1.50
2022-10-01T18:07:43.853Z,1.70
2022-10-01T18:10:13.204Z,2.10
2022-10-01T18:12:40.166Z,3.63
2022-10-01T18:15:07.400Z,2.57
2022-10-01T18:17:36.340Z,2.30
2022-10-01T18:20:05.026Z,2.20
2022-10-01T18:22:31.800Z,2.00
2022-10-01T18:24:58.400Z,2.50
2022-10-01T18:27:25.222Z,2.37
2022-10-01T18:29:51.905Z,2.20
2022-10-01T18:32:24.341Z,1.83
2022-10-01T18:34:55.172Z,1.90
2022-10-01T18:37:37.731Z,1.70
2022-10-01T18:40:26.707Z,1.90
2022-10-01T18:42:57.645Z,2.00
2022-10-01T18:45:45.384Z,1.83
2022-10-01T18:48:33.581Z,2.30
2022-10-01T18:51:32.356Z,2.07
2022-10-01T18:54:10.995Z,1.87
2022-10-01T18:56:45.622Z,1.60
2022-10-01T18:59:22.483Z,1.30
2022-10-01T19:02:09.513Z,1.77
2022-10-01T19:04:55.218Z,2.20
2022-10-01T19:07:52.862Z,2.40
2022-10-01T19:10:50.265Z,3.37
2022-10-01T19:13:26.009Z,1.97
2022-10-01T19:16:01.866Z,2.43
2022-10-01T19:19:22.355Z,2.30
2022-10-01T19:21:55.127Z,2.40
2022-10-01T19:24:45.832Z,2.17
2022-10-01T19:27:31.484Z,1.50
2022-10-01T19:30:01.235Z,2.23
2022-10-01T19:32:43.172Z,2.07
2022-10-01T19:35:27.546Z,1.67
2022-10-01T19:37:56.839Z,2.47
2022-10-01T19:40:23.529Z,1.60
2022-10-01T19:43:13.205Z,2.00
2022-10-01T19:45:56.266Z,1.77
2022-10-01T19:48:50.845Z,1.80
2022-10-01T19:51:23.564Z,1.80
2022-10-01T19:54:00.002Z,1.60
2022-10-01T19:56:32.236Z,2.60
2022-10-01T19:59:07.739Z,1.70
2022-10-01T20:01:49.056Z,1.60
2022-10-01T20:04:26.864Z,2.17
2022-10-01T20:07:01.109Z,1.60
2022-10-01T20:09:35.307Z,1.40
2022-10-01T20:12:17.909Z,1.80
2022-10-01T20:15:11.297Z,1.40
2022-10-01T20:17:56.662Z,1.33
2022-10-01T20:20:35.936Z,1.67
2022-10-01T20:23:27.144Z,1.23
2022-10-01T20:26:05.778Z,1.70
2022-10-01T20:28:57.058Z,1.60
2022-10-01T20:31:34.324Z,1.43
2022-10-01T20:34:29.533Z,1.47
2022-10-01T20:37:16.945Z,1.20
2022-10-01T20:39:50.831Z,1.37
2022-10-01T20:42:35.278Z,1.40
2022-10-01T20:45:03.233Z,1.50
2022-10-01T20:47:49.159Z,2.07
2022-10-01T20:50:25.964Z,1.17
2022-10-01T20:53:03.826Z,1.53
2022-10-01T20:55:41.831Z,1.27
2022-10-01T20:58:18.297Z,1.60
2022-10-01T21:00:47.694Z,1.60
2022-10-01T21:03:30.025Z,1.53
2022-10-01T21:06:04.759Z,1.10
2022-10-01T21:08:38.060Z,1.50
2022-10-01T21:11:14.407Z,1.13
2022-10-01T21:14:20.130Z,1.57
2022-10-01T21:16:54.079Z,1.30
2022-10-01T21:19:32.464Z,1.60
2022-10-01T21:22:10.997Z,1.10
2022-10-01T21:24:59.278Z,1.57
2022-10-01T21:28:07.607Z,1.17
2022-10-01T21:30:57.304Z,1.53
2022-10-01T21:33:38.444Z,1.30
2022-10-01T21:36:19.284Z,1.10
2022-10-01T21:39:21.678Z,2.40
2022-10-01T21:41:57.295Z,1.50
2022-10-01T21:44:42.902Z,1.50
2022-10-01T21:47:45.690Z,1.20
2022-10-01T21:50:49.118Z,1.60
2022-10-01T21:53:24.359Z,1.47
2022-10-01T21:56:03.528Z,1.50
2022-10-01T21:58:55.201Z,2.17
2022-10-01T22:01:27.356Z,1.53
2022-10-01T22:04:32.765Z,1.53
2022-10-01T22:07:19.030Z,1.27
2022-10-01T22:09:48.673Z,1.63
2022-10-01T22:12:15.957Z,2.23
2022-10-01T22:14:45.197Z,1.83
2022-10-01T22:17:20.106Z,1.90
2022-10-01T22:19:51.138Z,1.43
2022-10-01T22:22:25.502Z,1.27
2022-10-01T22:24:54.820Z,1.53
2022-10-01T22:27:46.991Z,1.77
2022-10-01T22:30:17.298Z,1.57
2022-10-01T22:33:00.094Z,1.30
2022-10-01T22:35:41.982Z,1.30
2022-10-01T22:38:21.160Z,1.57
2022-10-01T22:41:07.803Z,1.27
2022-10-01T22:43:34.805Z,1.63
2022-10-01T22:46:17.840Z,1.83
2022-10-01T22:49:08.987Z,1.73
2022-10-01T22:51:54.505Z,1.30
2022-10-01T22:54:21.567Z,1.73
2022-10-01T22:57:06.052Z,1.60
2022-10-01T22:59:51.097Z,1.60
2022-10-01T23:02:32.466Z,1.93
2022-10-01T23:05:19.362Z,2.03
2022-10-01T23:08:08.131Z,1.90
2022-10-01T23:10:49.709Z,1.93
2022-10-01T23:13:24.499Z,2.37
2022-10-01T23:16:12.383Z,2.13
2022-10-01T23:19:02.697Z,1.97
2022-10-01T23:21:56.749Z,2.27
2022-10-01T23:24:45.382Z,1.73
2022-10-01T23:27:37.850Z,2.10
2022-10-01T23:30:15.324Z,1.87
2022-10-01T23:32:41.909Z,1.80
2022-10-01T23:35:20.724Z,1.77
2022-10-01T23:37:57.979Z,2.43
2022-10-01T23:40:30.635Z,1.87
2022-10-01T23:43:33.107Z,1.60
2022-10-01T23:46:23.474Z,2.00
2022-10-01T23:48:57.880Z,2.23
2022-10-01T23:51:49.685Z,2.40
2022-10-01T23:54:40.050Z,2.20
2022-10-01T23:57:31.234Z,1.87
